Terminal Aerodrome Forecast
Issued by NWS

Home | Current Version | Previous Version | Text Only | Print | Product List | Glossary On
Versions: 1 2 3 4 5 6 7 8 9 10 11 12 13 14 15
000
FTUS43 KICT 201700
TAFHUT
TAF
KHUT 201736Z 2018/2118 22013KT P6SM BKN040
     FM202300 22007KT P6SM SCT050 BKN100
     FM210500 03008KT P6SM VCTS BKN040CB
     FM211000 03013KT P6SM SCT100=

USA.gov is the U.S. government's official web portal to all federal, state and local government web resources and services.